sensor_id;sensor_type;location;lat;lon;timestamp;temperature;humidity
60353;DHT22;46196;52.970;6.954;2023-07-09T00:00:12;19.60;89.00
60353;DHT22;46196;52.970;6.954;2023-07-09T00:02:39;22.20;90.00
60353;DHT22;46196;52.970;6.954;2023-07-09T00:05:07;22.20;90.20
60353;DHT22;46196;52.970;6.954;2023-07-09T00:07:34;23.70;92.00
60353;DHT22;46196;52.970;6.954;2023-07-09T00:10:00;21.80;91.20
60353;DHT22;46196;52.970;6.954;2023-07-09T00:12:26;22.10;91.40
60353;DHT22;46196;52.970;6.954;2023-07-09T00:14:52;21.50;91.70
60353;DHT22;46196;52.970;6.954;2023-07-09T00:17:28;20.90;92.70
60353;DHT22;46196;52.970;6.954;2023-07-09T00:19:54;21.90;92.70
60353;DHT22;46196;52.970;6.954;2023-07-09T00:22:20;22.30;94.20
60353;DHT22;46196;52.970;6.954;2023-07-09T00:24:48;21.50;94.70
60353;DHT22;46196;52.970;6.954;2023-07-09T00:27:18;21.80;95.70
60353;DHT22;46196;52.970;6.954;2023-07-09T00:29:44;21.80;94.70
60353;DHT22;46196;52.970;6.954;2023-07-09T00:32:15;21.50;94.80
60353;DHT22;46196;52.970;6.954;2023-07-09T00:34:44;22.10;96.20
60353;DHT22;46196;52.970;6.954;2023-07-09T00:37:24;21.70;95.60
60353;DHT22;46196;52.970;6.954;2023-07-09T00:39:51;21.80;96.80
60353;DHT22;46196;52.970;6.954;2023-07-09T00:42:21;21.70;96.10
60353;DHT22;46196;52.970;6.954;2023-07-09T00:44:53;21.20;96.10
60353;DHT22;46196;52.970;6.954;2023-07-09T00:47:34;21.70;96.20
60353;DHT22;46196;52.970;6.954;2023-07-09T00:52:57;21.60;96.80
60353;DHT22;46196;52.970;6.954;2023-07-09T00:55:27;21.40;97.70
60353;DHT22;46196;52.970;6.954;2023-07-09T00:57:58;21.20;97.20
60353;DHT22;46196;52.970;6.954;2023-07-09T01:00:30;21.80;97.50
60353;DHT22;46196;52.970;6.954;2023-07-09T01:03:10;21.50;97.40
60353;DHT22;46196;52.970;6.954;2023-07-09T01:05:38;21.50;97.70
60353;DHT22;46196;52.970;6.954;2023-07-09T01:08:05;21.40;97.70
60353;DHT22;46196;52.970;6.954;2023-07-09T01:10:31;21.20;97.90
60353;DHT22;46196;52.970;6.954;2023-07-09T01:12:57;22.00;98.20
60353;DHT22;46196;52.970;6.954;2023-07-09T01:15:22;21.30;98.30
60353;DHT22;46196;52.970;6.954;2023-07-09T01:17:48;21.30;98.50
60353;DHT22;46196;52.970;6.954;2023-07-09T01:20:20;21.30;98.60
60353;DHT22;46196;52.970;6.954;2023-07-09T01:22:50;21.20;98.70
60353;DHT22;46196;52.970;6.954;2023-07-09T01:25:21;21.80;99.10
60353;DHT22;46196;52.970;6.954;2023-07-09T01:27:47;21.10;99.40
60353;DHT22;46196;52.970;6.954;2023-07-09T01:30:18;21.60;99.70
60353;DHT22;46196;52.970;6.954;2023-07-09T01:32:51;20.80;99.60
60353;DHT22;46196;52.970;6.954;2023-07-09T01:35:21;21.00;99.90
60353;DHT22;46196;52.970;6.954;2023-07-09T01:37:47;21.10;99.90
60353;DHT22;46196;52.970;6.954;2023-07-09T01:40:15;19.90;99.30
60353;DHT22;46196;52.970;6.954;2023-07-09T01:42:42;20.20;99.90
60353;DHT22;46196;52.970;6.954;2023-07-09T01:45:10;21.10;99.90
60353;DHT22;46196;52.970;6.954;2023-07-09T01:47:37;21.10;99.90
60353;DHT22;46196;52.970;6.954;2023-07-09T01:50:03;21.00;99.90
60353;DHT22;46196;52.970;6.954;2023-07-09T01:52:31;20.90;99.90
60353;DHT22;46196;52.970;6.954;2023-07-09T01:54:57;20.10;99.90
60353;DHT22;46196;52.970;6.954;2023-07-09T01:57:26;21.40;99.90
60353;DHT22;46196;52.970;6.954;2023-07-09T02:00:00;21.00;99.90
60353;DHT22;46196;52.970;6.954;2023-07-09T02:02:26;20.80;99.90
60353;DHT22;46196;52.970;6.954;2023-07-09T02:04:55;21.10;99.90
60353;DHT22;46196;52.970;6.954;2023-07-09T02:07:22;20.90;99.90
60353;DHT22;46196;52.970;6.954;2023-07-09T02:09:48;20.90;99.90
60353;DHT22;46196;52.970;6.954;2023-07-09T02:12:15;21.80;99.90
60353;DHT22;46196;52.970;6.954;2023-07-09T02:14:41;20.90;99.90
60353;DHT22;46196;52.970;6.954;2023-07-09T02:17:08;20.10;99.90
60353;DHT22;46196;52.970;6.954;2023-07-09T02:19:34;20.80;99.90
60353;DHT22;46196;52.970;6.954;2023-07-09T02:22:00;20.90;99.90
60353;DHT22;46196;52.970;6.954;2023-07-09T02:24:26;20.80;99.90
60353;DHT22;46196;52.970;6.954;2023-07-09T02:27:04;20.90;99.90
60353;DHT22;46196;52.970;6.954;2023-07-09T02:29:31;20.80;99.90
60353;DHT22;46196;52.970;6.954;2023-07-09T02:31:58;22.60;99.90
60353;DHT22;46196;52.970;6.954;2023-07-09T02:34:25;21.10;99.90
60353;DHT22;46196;52.970;6.954;2023-07-09T02:36:55;20.90;99.90
60353;DHT22;46196;52.970;6.954;2023-07-09T02:39:22;20.80;99.90
60353;DHT22;46196;52.970;6.954;2023-07-09T02:41:48;20.60;99.90
60353;DHT22;46196;52.970;6.954;2023-07-09T02:44:14;20.20;99.90
60353;DHT22;46196;52.970;6.954;2023-07-09T02:46:40;20.80;99.90
60353;DHT22;46196;52.970;6.954;2023-07-09T02:49:06;21.40;99.90
60353;DHT22;46196;52.970;6.954;2023-07-09T02:51:33;21.60;99.90
60353;DHT22;46196;52.970;6.954;2023-07-09T02:54:00;20.60;99.90
60353;DHT22;46196;52.970;6.954;2023-07-09T02:56:26;20.40;99.90
60353;DHT22;46196;52.970;6.954;2023-07-09T02:58:52;20.60;99.90
60353;DHT22;46196;52.970;6.954;2023-07-09T03:01:18;20.60;99.90
60353;DHT22;46196;52.970;6.954;2023-07-09T03:03:47;20.60;99.90
60353;DHT22;46196;52.970;6.954;2023-07-09T03:06:12;20.70;99.90
60353;DHT22;46196;52.970;6.954;2023-07-09T03:08:38;19.20;99.90
60353;DHT22;46196;52.970;6.954;2023-07-09T03:11:15;20.50;99.90
60353;DHT22;46196;52.970;6.954;2023-07-09T03:13:41;20.50;99.90
60353;DHT22;46196;52.970;6.954;2023-07-09T03:16:08;20.50;99.90
60353;DHT22;46196;52.970;6.954;2023-07-09T03:18:33;19.60;99.90
60353;DHT22;46196;52.970;6.954;2023-07-09T03:20:59;21.00;99.90
60353;DHT22;46196;52.970;6.954;2023-07-09T03:23:25;20.30;99.90
60353;DHT22;46196;52.970;6.954;2023-07-09T03:25:51;20.70;99.90
60353;DHT22;46196;52.970;6.954;2023-07-09T03:28:17;20.30;99.90
60353;DHT22;46196;52.970;6.954;2023-07-09T03:30:44;20.10;99.90
60353;DHT22;46196;52.970;6.954;2023-07-09T03:33:11;20.10;99.90
60353;DHT22;46196;52.970;6.954;2023-07-09T03:35:38;20.40;99.90
60353;DHT22;46196;52.970;6.954;2023-07-09T03:38:05;20.10;99.90
60353;DHT22;46196;52.970;6.954;2023-07-09T03:40:31;20.40;99.90
60353;DHT22;46196;52.970;6.954;2023-07-09T03:42:56;20.00;99.90
60353;DHT22;46196;52.970;6.954;2023-07-09T03:45:22;19.30;99.90
60353;DHT22;46196;52.970;6.954;2023-07-09T03:47:48;20.00;99.90
60353;DHT22;46196;52.970;6.954;2023-07-09T03:50:14;19.80;99.90
60353;DHT22;46196;52.970;6.954;2023-07-09T03:52:40;20.60;99.90
60353;DHT22;46196;52.970;6.954;2023-07-09T03:55:06;19.60;99.90
60353;DHT22;46196;52.970;6.954;2023-07-09T03:57:32;19.90;99.90
60353;DHT22;46196;52.970;6.954;2023-07-09T03:59:59;19.50;99.90
60353;DHT22;46196;52.970;6.954;2023-07-09T04:02:24;20.00;99.90
60353;DHT22;46196;52.970;6.954;2023-07-09T04:04:50;19.70;99.90
60353;DHT22;46196;52.970;6.954;2023-07-09T04:07:16;19.90;99.90
60353;DHT22;46196;52.970;6.954;2023-07-09T04:09:43;19.90;99.90
60353;DHT22;46196;52.970;6.954;2023-07-09T04:12:09;19.80;99.90
60353;DHT22;46196;52.970;6.954;2023-07-09T04:14:35;19.80;99.90
60353;DHT22;46196;52.970;6.954;2023-07-09T04:17:00;19.10;99.90
60353;DHT22;46196;52.970;6.954;2023-07-09T04:19:26;20.40;99.90
60353;DHT22;46196;52.970;6.954;2023-07-09T04:21:52;19.80;99.90
60353;DHT22;46196;52.970;6.954;2023-07-09T04:24:18;19.90;99.90
60353;DHT22;46196;52.970;6.954;2023-07-09T04:26:45;20.00;99.90
60353;DHT22;46196;52.970;6.954;2023-07-09T04:29:13;21.50;99.90
60353;DHT22;46196;52.970;6.954;2023-07-09T04:31:40;19.90;99.90
60353;DHT22;46196;52.970;6.954;2023-07-09T04:34:06;20.10;99.90
60353;DHT22;46196;52.970;6.954;2023-07-09T04:36:32;20.10;99.90
60353;DHT22;46196;52.970;6.954;2023-07-09T04:38:58;19.90;99.90
60353;DHT22;46196;52.970;6.954;2023-07-09T04:41:24;20.30;99.90
60353;DHT22;46196;52.970;6.954;2023-07-09T04:43:50;19.60;99.90
60353;DHT22;46196;52.970;6.954;2023-07-09T04:46:16;20.20;99.90
60353;DHT22;46196;52.970;6.954;2023-07-09T04:48:42;21.70;99.90
60353;DHT22;46196;52.970;6.954;2023-07-09T04:51:08;20.30;99.90
60353;DHT22;46196;52.970;6.954;2023-07-09T04:53:34;21.10;99.90
60353;DHT22;46196;52.970;6.954;2023-07-09T04:56:00;20.40;99.90
60353;DHT22;46196;52.970;6.954;2023-07-09T04:58:28;20.60;99.90
60353;DHT22;46196;52.970;6.954;2023-07-09T05:00:57;20.50;99.90
60353;DHT22;46196;52.970;6.954;2023-07-09T05:03:23;20.60;99.90
60353;DHT22;46196;52.970;6.954;2023-07-09T05:05:49;19.90;99.90
60353;DHT22;46196;52.970;6.954;2023-07-09T05:08:15;19.40;99.90
60353;DHT22;46196;52.970;6.954;2023-07-09T05:10:48;20.80;99.90
60353;DHT22;46196;52.970;6.954;2023-07-09T05:13:15;20.80;99.90
60353;DHT22;46196;52.970;6.954;2023-07-09T05:15:44;20.80;99.90
60353;DHT22;46196;52.970;6.954;2023-07-09T05:18:11;22.30;99.90
60353;DHT22;46196;52.970;6.954;2023-07-09T05:20:40;21.20;99.90
60353;DHT22;46196;52.970;6.954;2023-07-09T05:23:07;21.00;99.90
60353;DHT22;46196;52.970;6.954;2023-07-09T05:25:33;21.50;99.90
60353;DHT22;46196;52.970;6.954;2023-07-09T05:27:59;22.10;99.90
60353;DHT22;46196;52.970;6.954;2023-07-09T05:30:25;21.70;99.90
60353;DHT22;46196;52.970;6.954;2023-07-09T05:32:51;22.20;99.90
60353;DHT22;46196;52.970;6.954;2023-07-09T05:35:19;20.80;99.90
60353;DHT22;46196;52.970;6.954;2023-07-09T05:37:45;22.00;99.90
60353;DHT22;46196;52.970;6.954;2023-07-09T05:40:12;22.20;99.90
60353;DHT22;46196;52.970;6.954;2023-07-09T05:42:38;22.00;99.90
60353;DHT22;46196;52.970;6.954;2023-07-09T05:45:04;22.30;99.90
60353;DHT22;46196;52.970;6.954;2023-07-09T05:47:30;21.60;99.90
60353;DHT22;46196;52.970;6.954;2023-07-09T05:49:56;22.20;99.90
60353;DHT22;46196;52.970;6.954;2023-07-09T05:52:23;22.00;99.90
60353;DHT22;46196;52.970;6.954;2023-07-09T05:54:50;22.40;99.90
60353;DHT22;46196;52.970;6.954;2023-07-09T05:57:16;22.50;99.90
60353;DHT22;46196;52.970;6.954;2023-07-09T05:59:43;22.80;99.90
60353;DHT22;46196;52.970;6.954;2023-07-09T06:02:13;22.70;99.90
60353;DHT22;46196;52.970;6.954;2023-07-09T06:04:39;22.80;99.90
60353;DHT22;46196;52.970;6.954;2023-07-09T06:07:05;21.60;99.90
60353;DHT22;46196;52.970;6.954;2023-07-09T06:09:31;22.50;99.90
60353;DHT22;46196;52.970;6.954;2023-07-09T06:11:57;22.30;99.90
60353;DHT22;46196;52.970;6.954;2023-07-09T06:14:23;23.30;99.90
60353;DHT22;46196;52.970;6.954;2023-07-09T06:16:49;23.30;99.90
60353;DHT22;46196;52.970;6.954;2023-07-09T06:19:15;22.90;99.90
60353;DHT22;46196;52.970;6.954;2023-07-09T06:21:40;23.40;99.90
60353;DHT22;46196;52.970;6.954;2023-07-09T06:24:07;23.40;99.90
60353;DHT22;46196;52.970;6.954;2023-07-09T06:26:33;24.70;99.90
60353;DHT22;46196;52.970;6.954;2023-07-09T06:28:59;25.50;99.90
60353;DHT22;46196;52.970;6.954;2023-07-09T06:31:24;23.60;99.90
60353;DHT22;46196;52.970;6.954;2023-07-09T06:33:50;23.20;99.90
60353;DHT22;46196;52.970;6.954;2023-07-09T06:36:18;23.30;99.90
60353;DHT22;46196;52.970;6.954;2023-07-09T06:38:44;23.70;99.90
60353;DHT22;46196;52.970;6.954;2023-07-09T06:41:11;23.50;99.90
60353;DHT22;46196;52.970;6.954;2023-07-09T06:43:37;24.00;99.90
60353;DHT22;46196;52.970;6.954;2023-07-09T06:46:07;23.80;99.90
60353;DHT22;46196;52.970;6.954;2023-07-09T06:48:34;23.90;99.90
60353;DHT22;46196;52.970;6.954;2023-07-09T06:51:00;24.10;99.90
60353;DHT22;46196;52.970;6.954;2023-07-09T06:53:26;24.10;99.90
60353;DHT22;46196;52.970;6.954;2023-07-09T06:55:53;24.10;99.90
60353;DHT22;46196;52.970;6.954;2023-07-09T06:58:21;24.20;99.90
60353;DHT22;46196;52.970;6.954;2023-07-09T07:00:51;24.30;99.90
60353;DHT22;46196;52.970;6.954;2023-07-09T07:03:17;24.60;99.90
60353;DHT22;46196;52.970;6.954;2023-07-09T07:05:47;24.50;99.90
60353;DHT22;46196;52.970;6.954;2023-07-09T07:08:19;24.50;99.90
60353;DHT22;46196;52.970;6.954;2023-07-09T07:10:47;24.40;99.90
60353;DHT22;46196;52.970;6.954;2023-07-09T07:13:13;25.60;99.90
60353;DHT22;46196;52.970;6.954;2023-07-09T07:15:40;23.80;99.90
60353;DHT22;46196;52.970;6.954;2023-07-09T07:18:07;24.90;99.90
60353;DHT22;46196;52.970;6.954;2023-07-09T07:20:33;25.00;99.90
60353;DHT22;46196;52.970;6.954;2023-07-09T07:22:59;24.30;99.90
60353;DHT22;46196;52.970;6.954;2023-07-09T07:25:25;25.30;99.90
60353;DHT22;46196;52.970;6.954;2023-07-09T07:27:51;25.50;99.90
60353;DHT22;46196;52.970;6.954;2023-07-09T07:30:17;27.30;99.90
60353;DHT22;46196;52.970;6.954;2023-07-09T07:32:47;26.20;99.90
60353;DHT22;46196;52.970;6.954;2023-07-09T07:37:41;26.40;99.90
60353;DHT22;46196;52.970;6.954;2023-07-09T07:40:07;27.80;99.90
60353;DHT22;46196;52.970;6.954;2023-07-09T07:42:33;28.30;99.90
60353;DHT22;46196;52.970;6.954;2023-07-09T07:44:59;28.80;99.90
60353;DHT22;46196;52.970;6.954;2023-07-09T07:47:25;29.30;97.20
60353;DHT22;46196;52.970;6.954;2023-07-09T07:49:53;29.70;97.40
60353;DHT22;46196;52.970;6.954;2023-07-09T07:52:19;30.10;96.30
60353;DHT22;46196;52.970;6.954;2023-07-09T07:54:45;30.00;93.20
60353;DHT22;46196;52.970;6.954;2023-07-09T07:57:11;30.40;94.80
60353;DHT22;46196;52.970;6.954;2023-07-09T07:59:39;31.00;93.30
60353;DHT22;46196;52.970;6.954;2023-07-09T08:02:06;30.90;94.40
60353;DHT22;46196;52.970;6.954;2023-07-09T08:04:35;31.00;93.20
60353;DHT22;46196;52.970;6.954;2023-07-09T08:07:01;31.00;91.20
60353;DHT22;46196;52.970;6.954;2023-07-09T08:09:27;31.10;91.90
60353;DHT22;46196;52.970;6.954;2023-07-09T08:11:52;31.20;92.00
60353;DHT22;46196;52.970;6.954;2023-07-09T08:14:18;31.30;92.20
60353;DHT22;46196;52.970;6.954;2023-07-09T08:16:44;31.60;91.80
60353;DHT22;46196;52.970;6.954;2023-07-09T08:19:10;31.60;89.30
60353;DHT22;46196;52.970;6.954;2023-07-09T08:21:35;32.10;90.50
60353;DHT22;46196;52.970;6.954;2023-07-09T08:24:01;32.30;90.30
60353;DHT22;46196;52.970;6.954;2023-07-09T08:26:27;32.50;88.70
60353;DHT22;46196;52.970;6.954;2023-07-09T08:28:53;32.60;89.10
60353;DHT22;46196;52.970;6.954;2023-07-09T08:31:20;32.60;85.60
60353;DHT22;46196;52.970;6.954;2023-07-09T08:33:45;33.50;87.70
60353;DHT22;46196;52.970;6.954;2023-07-09T08:36:11;33.40;87.10
60353;DHT22;46196;52.970;6.954;2023-07-09T08:38:38;33.70;85.30
60353;DHT22;46196;52.970;6.954;2023-07-09T08:44:08;33.60;79.90
60353;DHT22;46196;52.970;6.954;2023-07-09T08:49:03;33.70;81.50
60353;DHT22;46196;52.970;6.954;2023-07-09T08:51:37;33.50;80.60
60353;DHT22;46196;52.970;6.954;2023-07-09T08:54:09;33.70;78.80
60353;DHT22;46196;52.970;6.954;2023-07-09T08:56:38;33.80;80.00
60353;DHT22;46196;52.970;6.954;2023-07-09T08:59:04;33.90;79.30
60353;DHT22;46196;52.970;6.954;2023-07-09T09:01:46;33.80;80.40
60353;DHT22;46196;52.970;6.954;2023-07-09T09:04:35;33.70;79.90
60353;DHT22;46196;52.970;6.954;2023-07-09T09:09:45;33.90;81.30
60353;DHT22;46196;52.970;6.954;2023-07-09T09:12:17;33.90;79.70
60353;DHT22;46196;52.970;6.954;2023-07-09T09:15:00;34.20;79.10
60353;DHT22;46196;52.970;6.954;2023-07-09T09:17:27;34.00;78.90
60353;DHT22;46196;52.970;6.954;2023-07-09T09:20:01;34.20;79.40
60353;DHT22;46196;52.970;6.954;2023-07-09T09:27:47;34.60;77.10
60353;DHT22;46196;52.970;6.954;2023-07-09T09:30:18;34.70;75.80
60353;DHT22;46196;52.970;6.954;2023-07-09T09:32:49;34.70;74.90
60353;DHT22;46196;52.970;6.954;2023-07-09T09:35:18;34.90;74.90
60353;DHT22;46196;52.970;6.954;2023-07-09T09:37:54;34.90;74.50
60353;DHT22;46196;52.970;6.954;2023-07-09T09:40:20;35.00;73.00
60353;DHT22;46196;52.970;6.954;2023-07-09T09:42:49;35.00;73.80
60353;DHT22;46196;52.970;6.954;2023-07-09T09:45:18;35.20;75.20
60353;DHT22;46196;52.970;6.954;2023-07-09T09:47:48;35.50;75.30
60353;DHT22;46196;52.970;6.954;2023-07-09T09:50:18;35.60;69.40
60353;DHT22;46196;52.970;6.954;2023-07-09T09:52:46;35.60;71.70
60353;DHT22;46196;52.970;6.954;2023-07-09T09:55:18;35.60;72.30
60353;DHT22;46196;52.970;6.954;2023-07-09T09:57:52;35.50;72.40
60353;DHT22;46196;52.970;6.954;2023-07-09T10:00:22;35.50;72.00
60353;DHT22;46196;52.970;6.954;2023-07-09T10:02:48;35.40;72.20
60353;DHT22;46196;52.970;6.954;2023-07-09T10:05:15;35.70;72.30
60353;DHT22;46196;52.970;6.954;2023-07-09T12:58:56;37.00;52.90
60353;DHT22;46196;52.970;6.954;2023-07-09T13:01:23;38.40;53.80
60353;DHT22;46196;52.970;6.954;2023-07-09T13:14:05;38.30;52.20
60353;DHT22;46196;52.970;6.954;2023-07-09T13:16:38;38.50;52.90
60353;DHT22;46196;52.970;6.954;2023-07-09T13:19:05;38.30;53.50
60353;DHT22;46196;52.970;6.954;2023-07-09T13:21:31;38.10;54.20
60353;DHT22;46196;52.970;6.954;2023-07-09T13:23:57;37.90;53.40
60353;DHT22;46196;52.970;6.954;2023-07-09T13:26:23;41.00;55.00
60353;DHT22;46196;52.970;6.954;2023-07-09T13:28:48;37.30;53.20
60353;DHT22;46196;52.970;6.954;2023-07-09T13:31:19;37.20;53.10
60353;DHT22;46196;52.970;6.954;2023-07-09T13:33:52;36.90;53.30
60353;DHT22;46196;52.970;6.954;2023-07-09T13:36:19;36.60;53.30
60353;DHT22;46196;52.970;6.954;2023-07-09T13:38:45;36.40;53.90
60353;DHT22;46196;52.970;6.954;2023-07-09T13:41:17;36.30;54.10
60353;DHT22;46196;52.970;6.954;2023-07-09T13:43:45;36.10;54.20
60353;DHT22;46196;52.970;6.954;2023-07-09T13:46:11;36.00;54.80
60353;DHT22;46196;52.970;6.954;2023-07-09T13:48:40;35.80;55.10
60353;DHT22;46196;52.970;6.954;2023-07-09T13:51:20;35.70;56.10
60353;DHT22;46196;52.970;6.954;2023-07-09T13:53:49;35.60;56.70
60353;DHT22;46196;52.970;6.954;2023-07-09T13:56:15;35.40;57.20
60353;DHT22;46196;52.970;6.954;2023-07-09T13:58:41;35.10;56.60
60353;DHT22;46196;52.970;6.954;2023-07-09T14:01:14;35.20;56.80
60353;DHT22;46196;52.970;6.954;2023-07-09T14:03:40;35.00;56.50
60353;DHT22;46196;52.970;6.954;2023-07-09T14:06:11;34.80;57.10
60353;DHT22;46196;52.970;6.954;2023-07-09T14:08:37;34.60;57.90
60353;DHT22;46196;52.970;6.954;2023-07-09T14:11:03;34.50;58.50
60353;DHT22;46196;52.970;6.954;2023-07-09T14:13:33;34.40;59.10
60353;DHT22;46196;52.970;6.954;2023-07-09T14:15:59;34.20;59.70
60353;DHT22;46196;52.970;6.954;2023-07-09T14:18:25;34.10;60.00
60353;DHT22;46196;52.970;6.954;2023-07-09T14:20:52;34.00;60.30
60353;DHT22;46196;52.970;6.954;2023-07-09T14:23:19;34.00;61.20
60353;DHT22;46196;52.970;6.954;2023-07-09T14:25:45;33.90;61.70
60353;DHT22;46196;52.970;6.954;2023-07-09T14:28:17;33.80;61.70
60353;DHT22;46196;52.970;6.954;2023-07-09T14:30:44;34.00;63.50
60353;DHT22;46196;52.970;6.954;2023-07-09T14:33:17;33.50;64.50
60353;DHT22;46196;52.970;6.954;2023-07-09T14:35:44;33.70;63.70
60353;DHT22;46196;52.970;6.954;2023-07-09T14:38:20;33.60;64.20
60353;DHT22;46196;52.970;6.954;2023-07-09T14:40:47;33.60;64.00
60353;DHT22;46196;52.970;6.954;2023-07-09T14:43:13;33.50;63.00
60353;DHT22;46196;52.970;6.954;2023-07-09T14:45:40;33.50;63.10
60353;DHT22;46196;52.970;6.954;2023-07-09T14:48:14;33.30;63.00
60353;DHT22;46196;52.970;6.954;2023-07-09T14:50:41;33.30;64.30
60353;DHT22;46196;52.970;6.954;2023-07-09T14:53:25;33.10;64.30
60353;DHT22;46196;52.970;6.954;2023-07-09T14:55:52;33.10;64.00
60353;DHT22;46196;52.970;6.954;2023-07-09T14:58:23;32.90;64.10
60353;DHT22;46196;52.970;6.954;2023-07-09T15:00:49;32.80;64.60
60353;DHT22;46196;52.970;6.954;2023-07-09T15:03:19;32.70;64.90
60353;DHT22;46196;52.970;6.954;2023-07-09T15:05:46;32.40;66.80
60353;DHT22;46196;52.970;6.954;2023-07-09T15:08:17;32.40;65.90
60353;DHT22;46196;52.970;6.954;2023-07-09T15:10:43;32.10;66.90
60353;DHT22;46196;52.970;6.954;2023-07-09T15:13:25;32.20;66.50
60353;DHT22;46196;52.970;6.954;2023-07-09T15:15:52;31.60;66.60
60353;DHT22;46196;52.970;6.954;2023-07-09T15:18:17;31.60;67.30
60353;DHT22;46196;52.970;6.954;2023-07-09T15:20:48;31.90;66.90
60353;DHT22;46196;52.970;6.954;2023-07-09T15:23:14;31.10;67.70
60353;DHT22;46196;52.970;6.954;2023-07-09T15:25:40;31.80;67.70
60353;DHT22;46196;52.970;6.954;2023-07-09T15:28:09;31.70;67.80
60353;DHT22;46196;52.970;6.954;2023-07-09T15:30:35;31.70;68.30
60353;DHT22;46196;52.970;6.954;2023-07-09T15:33:02;31.60;68.70
60353;DHT22;46196;52.970;6.954;2023-07-09T15:35:35;31.50;69.00
60353;DHT22;46196;52.970;6.954;2023-07-09T15:40:38;31.30;70.50
60353;DHT22;46196;52.970;6.954;2023-07-09T15:43:06;31.20;70.50
60353;DHT22;46196;52.970;6.954;2023-07-09T15:45:44;31.20;71.60
60353;DHT22;46196;52.970;6.954;2023-07-09T15:48:33;31.90;74.00
60353;DHT22;46196;52.970;6.954;2023-07-09T15:51:04;30.50;65.40
60353;DHT22;46196;52.970;6.954;2023-07-09T15:53:30;30.20;65.40
60353;DHT22;46196;52.970;6.954;2023-07-09T15:56:11;28.70;66.40
60353;DHT22;46196;52.970;6.954;2023-07-09T15:58:43;28.80;67.20
60353;DHT22;46196;52.970;6.954;2023-07-09T16:01:14;28.00;67.30
60353;DHT22;46196;52.970;6.954;2023-07-09T16:03:52;27.90;67.30
60353;DHT22;46196;52.970;6.954;2023-07-09T16:06:19;27.40;67.20
60353;DHT22;46196;52.970;6.954;2023-07-09T16:08:45;27.10;67.00
60353;DHT22;46196;52.970;6.954;2023-07-09T16:11:20;26.70;66.90
60353;DHT22;46196;52.970;6.954;2023-07-09T16:13:46;26.10;66.70
60353;DHT22;46196;52.970;6.954;2023-07-09T16:16:20;26.40;67.20
60353;DHT22;46196;52.970;6.954;2023-07-09T16:18:46;25.30;68.70
60353;DHT22;46196;52.970;6.954;2023-07-09T16:21:29;25.80;70.50
60353;DHT22;46196;52.970;6.954;2023-07-09T16:23:57;25.70;70.70
60353;DHT22;46196;52.970;6.954;2023-07-09T16:26:23;25.40;71.40
60353;DHT22;46196;52.970;6.954;2023-07-09T16:28:50;24.60;74.80
60353;DHT22;46196;52.970;6.954;2023-07-09T16:31:16;24.90;74.60
60353;DHT22;46196;52.970;6.954;2023-07-09T16:33:42;23.90;77.70
60353;DHT22;46196;52.970;6.954;2023-07-09T16:36:12;23.50;78.80
60353;DHT22;46196;52.970;6.954;2023-07-09T16:38:39;24.20;79.80
60353;DHT22;46196;52.970;6.954;2023-07-09T16:41:04;24.40;82.30
60353;DHT22;46196;52.970;6.954;2023-07-09T16:43:30;23.60;88.70
60353;DHT22;46196;52.970;6.954;2023-07-09T16:45:56;23.30;97.60
60353;DHT22;46196;52.970;6.954;2023-07-09T16:48:23;23.50;97.00
60353;DHT22;46196;52.970;6.954;2023-07-09T16:53:18;23.20;99.90
60353;DHT22;46196;52.970;6.954;2023-07-09T16:55:44;22.20;99.90
60353;DHT22;46196;52.970;6.954;2023-07-09T16:58:34;22.10;99.90
60353;DHT22;46196;52.970;6.954;2023-07-09T17:01:00;22.00;99.90
60353;DHT22;46196;52.970;6.954;2023-07-09T17:03:26;21.80;99.90
60353;DHT22;46196;52.970;6.954;2023-07-09T17:05:52;21.30;99.90
60353;DHT22;46196;52.970;6.954;2023-07-09T17:08:17;21.40;99.90
60353;DHT22;46196;52.970;6.954;2023-07-09T17:10:44;21.10;99.90
60353;DHT22;46196;52.970;6.954;2023-07-09T17:13:22;21.00;99.90
60353;DHT22;46196;52.970;6.954;2023-07-09T17:15:48;20.90;99.90
60353;DHT22;46196;52.970;6.954;2023-07-09T17:18:22;20.50;99.90
60353;DHT22;46196;52.970;6.954;2023-07-09T17:20:49;21.00;99.90
60353;DHT22;46196;52.970;6.954;2023-07-09T17:23:15;19.90;99.90
60353;DHT22;46196;52.970;6.954;2023-07-09T17:25:41;20.60;99.90
60353;DHT22;46196;52.970;6.954;2023-07-09T17:28:20;20.60;99.90
60353;DHT22;46196;52.970;6.954;2023-07-09T17:30:46;19.30;99.90
60353;DHT22;46196;52.970;6.954;2023-07-09T17:33:13;19.70;99.90
60353;DHT22;46196;52.970;6.954;2023-07-09T17:35:40;20.40;99.90
60353;DHT22;46196;52.970;6.954;2023-07-09T17:38:14;20.10;99.90
60353;DHT22;46196;52.970;6.954;2023-07-09T17:40:40;20.50;99.90
60353;DHT22;46196;52.970;6.954;2023-07-09T17:43:12;20.10;99.90
60353;DHT22;46196;52.970;6.954;2023-07-09T17:45:38;20.30;99.90
60353;DHT22;46196;52.970;6.954;2023-07-09T17:48:13;20.30;99.90
60353;DHT22;46196;52.970;6.954;2023-07-09T17:50:39;19.80;99.90
60353;DHT22;46196;52.970;6.954;2023-07-09T17:53:19;20.20;99.90
60353;DHT22;46196;52.970;6.954;2023-07-09T17:55:46;21.60;99.90
60353;DHT22;46196;52.970;6.954;2023-07-09T17:58:18;18.70;99.90
60353;DHT22;46196;52.970;6.954;2023-07-09T18:00:46;20.40;99.90
60353;DHT22;46196;52.970;6.954;2023-07-09T18:03:13;19.10;99.90
60353;DHT22;46196;52.970;6.954;2023-07-09T18:05:41;20.40;99.90
60353;DHT22;46196;52.970;6.954;2023-07-09T18:08:09;20.20;99.90
60353;DHT22;46196;52.970;6.954;2023-07-09T18:10:37;19.90;99.90
60353;DHT22;46196;52.970;6.954;2023-07-09T18:13:10;20.20;99.90
60353;DHT22;46196;52.970;6.954;2023-07-09T18:15:37;20.60;99.90
60353;DHT22;46196;52.970;6.954;2023-07-09T18:18:04;20.20;99.90
60353;DHT22;46196;52.970;6.954;2023-07-09T18:20:30;20.30;99.90
60353;DHT22;46196;52.970;6.954;2023-07-09T18:22:57;20.20;99.90
60353;DHT22;46196;52.970;6.954;2023-07-09T18:25:23;20.40;99.90
60353;DHT22;46196;52.970;6.954;2023-07-09T18:27:52;20.60;99.90
60353;DHT22;46196;52.970;6.954;2023-07-09T18:30:24;19.60;99.90
60353;DHT22;46196;52.970;6.954;2023-07-09T18:32:51;18.80;99.90
60353;DHT22;46196;52.970;6.954;2023-07-09T18:35:31;20.10;99.90
60353;DHT22;46196;52.970;6.954;2023-07-09T18:38:09;18.80;99.90
60353;DHT22;46196;52.970;6.954;2023-07-09T18:40:40;19.90;99.90
60353;DHT22;46196;52.970;6.954;2023-07-09T18:43:17;20.30;99.90
60353;DHT22;46196;52.970;6.954;2023-07-09T18:45:43;20.20;99.90
60353;DHT22;46196;52.970;6.954;2023-07-09T18:48:20;20.20;99.90
60353;DHT22;46196;52.970;6.954;2023-07-09T18:50:48;19.80;99.90
60353;DHT22;46196;52.970;6.954;2023-07-09T18:53:18;20.20;99.90
60353;DHT22;46196;52.970;6.954;2023-07-09T18:55:48;24.30;99.90
60353;DHT22;46196;52.970;6.954;2023-07-09T18:58:22;19.90;99.90
60353;DHT22;46196;52.970;6.954;2023-07-09T19:00:49;20.10;99.90